sensor_id;sensor_type;location;lat;lon;timestamp;pressure;altitude;pressure_sealevel;temperature;humidity
6453;BME280;3259;51.080;13.712;2023-07-13T00:00:39;99997.88;;;30.61;33.80
6453;BME280;3259;51.080;13.712;2023-07-13T00:03:29;99995.66;;;30.58;33.75
6453;BME280;3259;51.080;13.712;2023-07-13T00:06:22;99995.09;;;30.56;34.00
6453;BME280;3259;51.080;13.712;2023-07-13T00:09:11;100005.53;;;30.52;33.77
6453;BME280;3259;51.080;13.712;2023-07-13T00:12:01;100000.38;;;30.51;34.16
6453;BME280;3259;51.080;13.712;2023-07-13T00:14:50;99999.00;;;30.48;34.02
6453;BME280;3259;51.080;13.712;2023-07-13T00:17:39;100008.44;;;30.51;34.01
6453;BME280;3259;51.080;13.712;2023-07-13T00:20:29;100001.44;;;30.50;34.20
6453;BME280;3259;51.080;13.712;2023-07-13T00:23:20;100009.50;;;30.50;34.16
6453;BME280;3259;51.080;13.712;2023-07-13T00:26:10;100023.31;;;30.53;34.36
6453;BME280;3259;51.080;13.712;2023-07-13T00:28:59;100022.69;;;30.63;33.97
6453;BME280;3259;51.080;13.712;2023-07-13T00:31:48;100032.28;;;30.59;33.72
6453;BME280;3259;51.080;13.712;2023-07-13T00:34:37;100037.69;;;30.59;34.15
6453;BME280;3259;51.080;13.712;2023-07-13T00:37:27;100050.47;;;30.52;33.97
6453;BME280;3259;51.080;13.712;2023-07-13T00:40:17;100060.47;;;30.40;34.53
6453;BME280;3259;51.080;13.712;2023-07-13T00:43:12;100076.41;;;30.30;34.23
6453;BME280;3259;51.080;13.712;2023-07-13T00:46:15;100097.63;;;30.15;34.36
6453;BME280;3259;51.080;13.712;2023-07-13T00:49:08;100099.19;;;30.11;34.85
6453;BME280;3259;51.080;13.712;2023-07-13T00:52:00;100086.31;;;30.13;35.01
6453;BME280;3259;51.080;13.712;2023-07-13T00:54:52;100081.16;;;30.00;35.94
6453;BME280;3259;51.080;13.712;2023-07-13T00:57:41;100084.19;;;29.92;36.91
6453;BME280;3259;51.080;13.712;2023-07-13T01:00:30;100084.47;;;29.79;36.90
6453;BME280;3259;51.080;13.712;2023-07-13T01:03:19;100078.75;;;29.64;37.63
6453;BME280;3259;51.080;13.712;2023-07-13T01:06:08;100056.28;;;29.70;37.89
6453;BME280;3259;51.080;13.712;2023-07-13T01:08:58;100013.38;;;29.75;37.59
6453;BME280;3259;51.080;13.712;2023-07-13T01:11:49;100000.72;;;29.87;38.03
6453;BME280;3259;51.080;13.712;2023-07-13T01:14:38;100015.09;;;29.92;38.07
6453;BME280;3259;51.080;13.712;2023-07-13T01:17:28;100032.03;;;29.93;37.93
6453;BME280;3259;51.080;13.712;2023-07-13T01:20:17;100044.25;;;29.84;38.33
6453;BME280;3259;51.080;13.712;2023-07-13T01:23:09;100050.31;;;29.79;37.99
6453;BME280;3259;51.080;13.712;2023-07-13T01:25:59;100042.63;;;29.83;37.98
6453;BME280;3259;51.080;13.712;2023-07-13T01:28:48;100038.38;;;29.87;38.11
6453;BME280;3259;51.080;13.712;2023-07-13T01:31:36;100046.53;;;29.92;38.25
6453;BME280;3259;51.080;13.712;2023-07-13T01:34:25;100047.84;;;29.89;38.97
6453;BME280;3259;51.080;13.712;2023-07-13T01:37:14;100048.91;;;29.77;38.83
6453;BME280;3259;51.080;13.712;2023-07-13T01:40:06;100046.31;;;29.82;39.43
6453;BME280;3259;51.080;13.712;2023-07-13T01:42:55;100051.69;;;29.82;39.31
6453;BME280;3259;51.080;13.712;2023-07-13T01:45:44;100040.50;;;29.85;39.51
6453;BME280;3259;51.080;13.712;2023-07-13T01:48:33;100044.69;;;29.81;39.27
6453;BME280;3259;51.080;13.712;2023-07-13T01:51:22;100043.91;;;29.69;39.60
6453;BME280;3259;51.080;13.712;2023-07-13T01:54:11;100045.88;;;29.73;39.18
6453;BME280;3259;51.080;13.712;2023-07-13T01:57:01;100038.16;;;29.77;39.43
6453;BME280;3259;51.080;13.712;2023-07-13T01:59:50;100028.09;;;29.84;38.97
6453;BME280;3259;51.080;13.712;2023-07-13T02:02:39;100031.72;;;29.89;38.17
6453;BME280;3259;51.080;13.712;2023-07-13T02:05:31;100026.66;;;29.93;38.64
6453;BME280;3259;51.080;13.712;2023-07-13T02:08:20;100032.16;;;29.86;38.46
6453;BME280;3259;51.080;13.712;2023-07-13T02:11:09;100035.56;;;29.82;38.98
6453;BME280;3259;51.080;13.712;2023-07-13T02:13:59;100037.22;;;29.83;38.39
6453;BME280;3259;51.080;13.712;2023-07-13T02:16:48;100038.16;;;29.77;38.15
6453;BME280;3259;51.080;13.712;2023-07-13T02:19:37;100029.53;;;29.75;38.11
6453;BME280;3259;51.080;13.712;2023-07-13T02:22:26;100032.22;;;29.75;38.20
6453;BME280;3259;51.080;13.712;2023-07-13T02:25:14;100029.88;;;29.78;38.58
6453;BME280;3259;51.080;13.712;2023-07-13T02:28:03;100039.91;;;29.83;38.20
6453;BME280;3259;51.080;13.712;2023-07-13T02:30:53;100037.69;;;29.80;38.12
6453;BME280;3259;51.080;13.712;2023-07-13T02:33:43;100045.16;;;29.78;38.02
6453;BME280;3259;51.080;13.712;2023-07-13T02:36:32;100046.44;;;29.75;38.07
6453;BME280;3259;51.080;13.712;2023-07-13T02:39:20;100040.75;;;29.72;38.30
6453;BME280;3259;51.080;13.712;2023-07-13T02:42:09;100046.13;;;29.72;38.37
6453;BME280;3259;51.080;13.712;2023-07-13T02:44:57;100051.13;;;29.80;38.39
6453;BME280;3259;51.080;13.712;2023-07-13T02:47:48;100048.31;;;29.86;38.82
6453;BME280;3259;51.080;13.712;2023-07-13T02:50:36;100050.78;;;29.88;38.31
6453;BME280;3259;51.080;13.712;2023-07-13T02:53:29;100055.00;;;29.84;39.01
6453;BME280;3259;51.080;13.712;2023-07-13T02:56:22;100061.53;;;29.88;38.47
6453;BME280;3259;51.080;13.712;2023-07-13T02:59:11;100054.66;;;29.80;39.08
6453;BME280;3259;51.080;13.712;2023-07-13T03:02:01;100061.78;;;29.75;39.16
6453;BME280;3259;51.080;13.712;2023-07-13T03:04:51;100053.59;;;29.70;39.02
6453;BME280;3259;51.080;13.712;2023-07-13T03:07:40;100065.06;;;29.77;39.06
6453;BME280;3259;51.080;13.712;2023-07-13T03:10:29;100059.69;;;29.77;38.57
6453;BME280;3259;51.080;13.712;2023-07-13T03:13:18;100056.53;;;29.68;39.43
6453;BME280;3259;51.080;13.712;2023-07-13T03:16:07;100062.50;;;29.59;39.46
6453;BME280;3259;51.080;13.712;2023-07-13T03:18:56;100067.28;;;29.57;39.20
6453;BME280;3259;51.080;13.712;2023-07-13T03:21:46;100071.72;;;29.51;39.77
6453;BME280;3259;51.080;13.712;2023-07-13T03:24:35;100068.25;;;29.51;39.60
6453;BME280;3259;51.080;13.712;2023-07-13T03:27:25;100068.34;;;29.56;39.38
6453;BME280;3259;51.080;13.712;2023-07-13T03:30:14;100076.31;;;29.51;39.52
6453;BME280;3259;51.080;13.712;2023-07-13T03:33:03;100067.75;;;29.42;39.76
6453;BME280;3259;51.080;13.712;2023-07-13T03:35:54;100081.41;;;29.41;39.56
6453;BME280;3259;51.080;13.712;2023-07-13T03:38:44;100078.50;;;29.42;39.72
6453;BME280;3259;51.080;13.712;2023-07-13T03:41:33;100081.88;;;29.38;40.04
6453;BME280;3259;51.080;13.712;2023-07-13T03:44:22;100078.59;;;29.36;40.08
6453;BME280;3259;51.080;13.712;2023-07-13T03:47:11;100081.19;;;29.54;39.37
6453;BME280;3259;51.080;13.712;2023-07-13T03:50:00;100078.41;;;29.49;39.38
6453;BME280;3259;51.080;13.712;2023-07-13T03:52:48;100083.50;;;29.39;39.64
6453;BME280;3259;51.080;13.712;2023-07-13T03:55:39;100098.44;;;29.35;40.44
6453;BME280;3259;51.080;13.712;2023-07-13T03:58:30;100098.44;;;29.35;39.89
6453;BME280;3259;51.080;13.712;2023-07-13T04:01:21;100098.13;;;29.31;40.50
6453;BME280;3259;51.080;13.712;2023-07-13T04:04:10;100101.13;;;29.35;40.16
6453;BME280;3259;51.080;13.712;2023-07-13T04:06:59;100105.94;;;29.33;39.66
6453;BME280;3259;51.080;13.712;2023-07-13T04:09:47;100123.69;;;29.34;39.68
6453;BME280;3259;51.080;13.712;2023-07-13T04:12:37;100121.47;;;29.31;40.11
6453;BME280;3259;51.080;13.712;2023-07-13T04:15:29;100121.59;;;29.36;39.43
6453;BME280;3259;51.080;13.712;2023-07-13T04:18:18;100122.63;;;29.35;39.66
6453;BME280;3259;51.080;13.712;2023-07-13T04:21:08;100121.59;;;29.36;39.73
6453;BME280;3259;51.080;13.712;2023-07-13T04:23:57;100112.50;;;29.37;39.75
6453;BME280;3259;51.080;13.712;2023-07-13T04:26:46;100110.88;;;29.36;39.74
6453;BME280;3259;51.080;13.712;2023-07-13T04:29:36;100117.63;;;29.38;39.75
6453;BME280;3259;51.080;13.712;2023-07-13T04:32:25;100121.81;;;29.46;39.63
6453;BME280;3259;51.080;13.712;2023-07-13T04:35:13;100126.97;;;29.36;39.34
6453;BME280;3259;51.080;13.712;2023-07-13T04:38:02;100130.69;;;29.35;39.67
6453;BME280;3259;51.080;13.712;2023-07-13T04:40:51;100133.84;;;29.32;39.37
6453;BME280;3259;51.080;13.712;2023-07-13T04:43:40;100132.81;;;29.33;39.21
6453;BME280;3259;51.080;13.712;2023-07-13T04:46:30;100135.38;;;29.28;39.16
6453;BME280;3259;51.080;13.712;2023-07-13T04:49:19;100138.84;;;29.17;39.69
6453;BME280;3259;51.080;13.712;2023-07-13T04:52:07;100139.59;;;29.24;39.50
6453;BME280;3259;51.080;13.712;2023-07-13T04:54:56;100130.13;;;29.33;39.94
6453;BME280;3259;51.080;13.712;2023-07-13T04:57:46;100134.78;;;29.37;39.92
6453;BME280;3259;51.080;13.712;2023-07-13T05:00:35;100141.00;;;29.38;40.06
6453;BME280;3259;51.080;13.712;2023-07-13T05:03:25;100142.53;;;29.45;39.35
6453;BME280;3259;51.080;13.712;2023-07-13T05:06:14;100141.28;;;29.48;39.50
6453;BME280;3259;51.080;13.712;2023-07-13T05:09:02;100140.44;;;29.47;39.50
6453;BME280;3259;51.080;13.712;2023-07-13T05:11:51;100141.50;;;29.58;39.37
6453;BME280;3259;51.080;13.712;2023-07-13T05:14:40;100134.84;;;29.60;39.30
6453;BME280;3259;51.080;13.712;2023-07-13T05:17:29;100135.22;;;29.64;38.66
6453;BME280;3259;51.080;13.712;2023-07-13T05:20:19;100134.16;;;29.65;38.71
6453;BME280;3259;51.080;13.712;2023-07-13T05:23:08;100135.69;;;29.61;38.53
6453;BME280;3259;51.080;13.712;2023-07-13T05:25:57;100139.44;;;29.60;38.82
6453;BME280;3259;51.080;13.712;2023-07-13T05:28:46;100135.44;;;29.51;39.00
6453;BME280;3259;51.080;13.712;2023-07-13T05:31:35;100143.88;;;29.54;38.82
6453;BME280;3259;51.080;13.712;2023-07-13T05:34:27;100141.03;;;29.49;39.16
6453;BME280;3259;51.080;13.712;2023-07-13T05:37:17;100146.44;;;29.61;38.46
6453;BME280;3259;51.080;13.712;2023-07-13T05:40:07;100144.91;;;29.53;38.71
6453;BME280;3259;51.080;13.712;2023-07-13T05:42:56;100153.38;;;29.39;38.35
6453;BME280;3259;51.080;13.712;2023-07-13T05:45:44;100146.38;;;29.38;39.04
6453;BME280;3259;51.080;13.712;2023-07-13T05:48:33;100149.66;;;29.40;38.59
6453;BME280;3259;51.080;13.712;2023-07-13T05:51:22;100154.38;;;29.56;38.56
6453;BME280;3259;51.080;13.712;2023-07-13T05:54:12;100157.81;;;29.45;38.62
6453;BME280;3259;51.080;13.712;2023-07-13T05:57:01;100148.34;;;29.31;39.31
6453;BME280;3259;51.080;13.712;2023-07-13T05:59:49;100149.06;;;29.38;39.37
6453;BME280;3259;51.080;13.712;2023-07-13T06:02:38;100147.28;;;29.32;39.51
6453;BME280;3259;51.080;13.712;2023-07-13T06:05:27;100149.28;;;29.36;39.14
6453;BME280;3259;51.080;13.712;2023-07-13T06:08:16;100150.44;;;29.40;38.99
6453;BME280;3259;51.080;13.712;2023-07-13T06:11:07;100152.44;;;29.45;39.46
6453;BME280;3259;51.080;13.712;2023-07-13T06:13:58;100156.66;;;29.41;39.62
6453;BME280;3259;51.080;13.712;2023-07-13T06:16:47;100159.25;;;29.36;39.44
6453;BME280;3259;51.080;13.712;2023-07-13T06:19:35;100165.16;;;29.26;38.92
6453;BME280;3259;51.080;13.712;2023-07-13T06:22:24;100170.78;;;29.25;39.17
6453;BME280;3259;51.080;13.712;2023-07-13T06:25:13;100166.44;;;29.24;39.07
6453;BME280;3259;51.080;13.712;2023-07-13T06:28:04;100162.72;;;29.25;38.64
6453;BME280;3259;51.080;13.712;2023-07-13T06:30:52;100166.44;;;29.24;38.50
6453;BME280;3259;51.080;13.712;2023-07-13T06:33:41;100164.56;;;29.13;39.13
6453;BME280;3259;51.080;13.712;2023-07-13T06:36:30;100157.53;;;29.12;38.72
6453;BME280;3259;51.080;13.712;2023-07-13T06:39:19;100155.44;;;29.14;38.56
6453;BME280;3259;51.080;13.712;2023-07-13T06:42:08;100160.34;;;29.17;38.90
6453;BME280;3259;51.080;13.712;2023-07-13T06:45:02;100159.56;;;29.28;39.21
6453;BME280;3259;51.080;13.712;2023-07-13T06:47:51;100176.72;;;29.27;39.21
6453;BME280;3259;51.080;13.712;2023-07-13T06:50:41;100182.81;;;29.34;39.05
6453;BME280;3259;51.080;13.712;2023-07-13T06:53:30;100182.47;;;29.30;39.04
6453;BME280;3259;51.080;13.712;2023-07-13T06:56:19;100188.91;;;29.29;38.70
6453;BME280;3259;51.080;13.712;2023-07-13T06:59:08;100183.53;;;29.29;38.52
6453;BME280;3259;51.080;13.712;2023-07-13T07:01:58;100190.38;;;29.25;38.65
6453;BME280;3259;51.080;13.712;2023-07-13T07:04:47;100187.47;;;29.27;38.58
6453;BME280;3259;51.080;13.712;2023-07-13T07:07:36;100180.56;;;29.19;38.79
6453;BME280;3259;51.080;13.712;2023-07-13T07:10:26;100189.44;;;29.20;39.11
6453;BME280;3259;51.080;13.712;2023-07-13T07:13:15;100191.94;;;29.33;39.03
6453;BME280;3259;51.080;13.712;2023-07-13T07:16:04;100204.19;;;29.29;38.74
6453;BME280;3259;51.080;13.712;2023-07-13T07:18:54;100201.38;;;29.24;38.91
6453;BME280;3259;51.080;13.712;2023-07-13T07:21:43;100194.13;;;29.24;38.47
6453;BME280;3259;51.080;13.712;2023-07-13T07:24:32;100202.41;;;29.23;38.41
6453;BME280;3259;51.080;13.712;2023-07-13T07:27:21;100197.31;;;29.33;38.36
6453;BME280;3259;51.080;13.712;2023-07-13T07:30:13;100193.56;;;29.34;38.37
6453;BME280;3259;51.080;13.712;2023-07-13T07:33:05;100199.66;;;29.41;37.98
6453;BME280;3259;51.080;13.712;2023-07-13T07:35:55;100193.13;;;29.37;37.76
6453;BME280;3259;51.080;13.712;2023-07-13T07:38:46;100195.44;;;29.33;37.61
6453;BME280;3259;51.080;13.712;2023-07-13T07:41:38;100199.75;;;29.34;38.26
6453;BME280;3259;51.080;13.712;2023-07-13T07:44:30;100199.66;;;29.41;37.78
6453;BME280;3259;51.080;13.712;2023-07-13T07:47:19;100199.66;;;29.41;37.80
6453;BME280;3259;51.080;13.712;2023-07-13T07:50:10;100196.41;;;29.39;37.81
6453;BME280;3259;51.080;13.712;2023-07-13T07:53:00;100210.41;;;29.41;37.59
6453;BME280;3259;51.080;13.712;2023-07-13T07:55:49;100200.25;;;29.43;37.44
6453;BME280;3259;51.080;13.712;2023-07-13T07:58:41;100196.41;;;29.39;37.27
6453;BME280;3259;51.080;13.712;2023-07-13T08:01:33;100200.50;;;29.41;37.42
6453;BME280;3259;51.080;13.712;2023-07-13T08:04:25;100210.28;;;29.77;36.86
6453;BME280;3259;51.080;13.712;2023-07-13T08:07:16;100198.13;;;29.86;37.05
6453;BME280;3259;51.080;13.712;2023-07-13T08:10:08;100203.00;;;29.66;37.10
6453;BME280;3259;51.080;13.712;2023-07-13T08:12:56;100206.28;;;29.68;37.01
6453;BME280;3259;51.080;13.712;2023-07-13T08:15:48;100217.28;;;29.78;36.43
6453;BME280;3259;51.080;13.712;2023-07-13T08:18:37;100204.91;;;30.00;36.33
6453;BME280;3259;51.080;13.712;2023-07-13T08:21:25;100206.69;;;30.17;36.95
6453;BME280;3259;51.080;13.712;2023-07-13T08:24:15;100219.94;;;30.19;36.51
6453;BME280;3259;51.080;13.712;2023-07-13T08:27:06;100209.97;;;30.08;36.88
6453;BME280;3259;51.080;13.712;2023-07-13T08:29:55;100214.16;;;30.38;36.37
6453;BME280;3259;51.080;13.712;2023-07-13T08:32:44;100212.56;;;30.14;36.31
6453;BME280;3259;51.080;13.712;2023-07-13T08:35:33;100210.66;;;30.15;35.84
6453;BME280;3259;51.080;13.712;2023-07-13T08:38:22;100215.94;;;30.10;36.49
6453;BME280;3259;51.080;13.712;2023-07-13T08:41:13;100215.22;;;30.26;36.49
6453;BME280;3259;51.080;13.712;2023-07-13T08:44:15;100205.19;;;30.10;36.18
6453;BME280;3259;51.080;13.712;2023-07-13T08:47:09;100207.38;;;30.01;35.80
6453;BME280;3259;51.080;13.712;2023-07-13T08:49:58;100207.50;;;29.95;35.07
6453;BME280;3259;51.080;13.712;2023-07-13T08:52:48;100207.38;;;30.01;34.95
6453;BME280;3259;51.080;13.712;2023-07-13T08:55:37;100208.66;;;29.99;35.49
6453;BME280;3259;51.080;13.712;2023-07-13T08:58:27;100208.09;;;30.08;35.08
6453;BME280;3259;51.080;13.712;2023-07-13T09:01:24;100210.66;;;30.03;34.99
6453;BME280;3259;51.080;13.712;2023-07-13T09:04:19;100213.13;;;30.05;34.75
6453;BME280;3259;51.080;13.712;2023-07-13T09:07:14;100213.94;;;30.05;35.00
6453;BME280;3259;51.080;13.712;2023-07-13T09:10:14;100215.81;;;30.05;35.13
6453;BME280;3259;51.080;13.712;2023-07-13T09:13:19;100224.72;;;30.05;35.24
6453;BME280;3259;51.080;13.712;2023-07-13T09:16:11;100222.22;;;30.27;34.71
6453;BME280;3259;51.080;13.712;2023-07-13T09:19:04;100228.56;;;30.44;35.91
6453;BME280;3259;51.080;13.712;2023-07-13T09:21:55;100235.44;;;30.40;35.37
6453;BME280;3259;51.080;13.712;2023-07-13T09:24:52;100233.31;;;30.53;35.04
6453;BME280;3259;51.080;13.712;2023-07-13T09:27:44;100230.75;;;30.35;35.26
6453;BME280;3259;51.080;13.712;2023-07-13T09:30:39;100230.84;;;30.52;35.65
6453;BME280;3259;51.080;13.712;2023-07-13T09:33:30;100239.19;;;30.50;36.01
6453;BME280;3259;51.080;13.712;2023-07-13T09:36:24;100233.59;;;30.40;36.10
6453;BME280;3259;51.080;13.712;2023-07-13T09:39:15;100235.00;;;30.43;35.13
6453;BME280;3259;51.080;13.712;2023-07-13T09:42:15;100247.97;;;30.46;35.47
6453;BME280;3259;51.080;13.712;2023-07-13T09:45:05;100239.56;;;30.31;35.17
6453;BME280;3259;51.080;13.712;2023-07-13T09:48:02;100238.13;;;30.40;35.16
6453;BME280;3259;51.080;13.712;2023-07-13T09:51:02;100236.22;;;30.75;35.00
6453;BME280;3259;51.080;13.712;2023-07-13T09:53:57;100247.97;;;30.69;34.81
6453;BME280;3259;51.080;13.712;2023-07-13T09:56:46;100250.75;;;30.51;35.08
6453;BME280;3259;51.080;13.712;2023-07-13T09:59:47;100247.50;;;30.99;34.15
6453;BME280;3259;51.080;13.712;2023-07-13T10:02:36;100246.28;;;30.91;34.39
6453;BME280;3259;51.080;13.712;2023-07-13T10:05:25;100250.53;;;30.64;33.68
6453;BME280;3259;51.080;13.712;2023-07-13T10:08:19;100245.09;;;30.87;33.42
6453;BME280;3259;51.080;13.712;2023-07-13T10:11:17;100250.13;;;30.83;34.03
6453;BME280;3259;51.080;13.712;2023-07-13T10:14:13;100254.78;;;30.60;33.73
6453;BME280;3259;51.080;13.712;2023-07-13T10:17:10;100247.00;;;30.75;33.11
6453;BME280;3259;51.080;13.712;2023-07-13T10:20:03;100248.38;;;30.89;32.98
6453;BME280;3259;51.080;13.712;2023-07-13T10:22:54;100249.59;;;30.70;32.63
6453;BME280;3259;51.080;13.712;2023-07-13T10:25:46;100247.00;;;30.75;32.81
6453;BME280;3259;51.080;13.712;2023-07-13T10:28:37;100248.31;;;30.61;32.93
6453;BME280;3259;51.080;13.712;2023-07-13T10:31:26;100247.63;;;30.65;32.68
6453;BME280;3259;51.080;13.712;2023-07-13T10:34:16;100261.53;;;30.74;33.03
6453;BME280;3259;51.080;13.712;2023-07-13T10:37:05;100252.28;;;30.70;33.38
6453;BME280;3259;51.080;13.712;2023-07-13T10:39:56;100246.09;;;30.58;33.49
6453;BME280;3259;51.080;13.712;2023-07-13T10:42:48;100251.69;;;30.56;33.20
6453;BME280;3259;51.080;13.712;2023-07-13T10:45:40;100246.78;;;30.65;33.06
6453;BME280;3259;51.080;13.712;2023-07-13T10:48:30;100243.63;;;30.56;33.34
6453;BME280;3259;51.080;13.712;2023-07-13T10:51:20;100239.44;;;30.60;32.51
6453;BME280;3259;51.080;13.712;2023-07-13T10:54:18;100235.91;;;30.60;32.60
6453;BME280;3259;51.080;13.712;2023-07-13T10:57:17;100232.97;;;30.73;32.80
6453;BME280;3259;51.080;13.712;2023-07-13T11:00:16;100238.84;;;30.70;32.89
6453;BME280;3259;51.080;13.712;2023-07-13T11:03:16;100243.50;;;30.63;32.67
6453;BME280;3259;51.080;13.712;2023-07-13T11:06:11;100241.88;;;30.62;32.75
6453;BME280;3259;51.080;13.712;2023-07-13T11:09:18;100232.75;;;30.63;31.96
6453;BME280;3259;51.080;13.712;2023-07-13T11:12:10;100240.59;;;30.64;32.21
6453;BME280;3259;51.080;13.712;2023-07-13T11:15:15;100234.38;;;30.64;31.96
6453;BME280;3259;51.080;13.712;2023-07-13T11:18:22;100239.75;;;30.64;32.24
6453;BME280;3259;51.080;13.712;2023-07-13T11:21:13;100240.69;;;30.58;32.87
6453;BME280;3259;51.080;13.712;2023-07-13T11:24:17;100244.09;;;30.65;33.14
6453;BME280;3259;51.080;13.712;2023-07-13T11:27:22;100245.16;;;30.64;33.52
6453;BME280;3259;51.080;13.712;2023-07-13T11:30:25;100233.94;;;30.67;33.09
6453;BME280;3259;51.080;13.712;2023-07-13T11:33:22;100233.38;;;30.93;33.00
6453;BME280;3259;51.080;13.712;2023-07-13T11:36:15;100236.34;;;30.80;32.97
6453;BME280;3259;51.080;13.712;2023-07-13T11:39:17;100247.00;;;30.75;32.70
6453;BME280;3259;51.080;13.712;2023-07-13T11:42:12;100237.41;;;30.79;33.08
6453;BME280;3259;51.080;13.712;2023-07-13T11:45:01;100230.38;;;30.78;32.89
6453;BME280;3259;51.080;13.712;2023-07-13T11:47:56;100229.69;;;30.71;32.96
6453;BME280;3259;51.080;13.712;2023-07-13T11:50:59;100227.09;;;30.76;33.06
6453;BME280;3259;51.080;13.712;2023-07-13T11:53:51;100228.94;;;30.87;32.73
6453;BME280;3259;51.080;13.712;2023-07-13T11:56:43;100223.25;;;30.99;33.02
6453;BME280;3259;51.080;13.712;2023-07-13T11:59:38;100221.03;;;31.08;32.91
6453;BME280;3259;51.080;13.712;2023-07-13T12:02:36;100229.91;;;31.36;33.02
6453;BME280;3259;51.080;13.712;2023-07-13T12:05:26;100218.91;;;31.38;32.91
6453;BME280;3259;51.080;13.712;2023-07-13T12:08:18;100221.44;;;31.44;33.05
6453;BME280;3259;51.080;13.712;2023-07-13T12:11:17;100208.81;;;31.61;32.21
6453;BME280;3259;51.080;13.712;2023-07-13T12:14:13;100214.88;;;31.68;32.61
6453;BME280;3259;51.080;13.712;2023-07-13T12:17:08;100214.47;;;31.76;32.80
6453;BME280;3259;51.080;13.712;2023-07-13T12:19:59;100209.69;;;31.83;32.16
6453;BME280;3259;51.080;13.712;2023-07-13T12:22:48;100206.78;;;31.85;32.58
6453;BME280;3259;51.080;13.712;2023-07-13T12:25:39;100210.03;;;31.87;32.06
6453;BME280;3259;51.080;13.712;2023-07-13T12:28:32;100209.06;;;31.93;32.26
6453;BME280;3259;51.080;13.712;2023-07-13T12:31:30;100208.38;;;32.02;31.75
6453;BME280;3259;51.080;13.712;2023-07-13T12:34:20;100217.06;;;32.04;31.38
6453;BME280;3259;51.080;13.712;2023-07-13T12:37:11;100206.81;;;32.06;31.06
6453;BME280;3259;51.080;13.712;2023-07-13T12:40:01;100212.16;;;32.01;30.97
6453;BME280;3259;51.080;13.712;2023-07-13T12:42:57;100207.44;;;31.92;30.86
6453;BME280;3259;51.080;13.712;2023-07-13T12:45:56;100206.84;;;31.90;30.79
6453;BME280;3259;51.080;13.712;2023-07-13T12:48:48;100211.50;;;31.94;30.96
6453;BME280;3259;51.080;13.712;2023-07-13T12:51:58;100199.56;;;32.07;30.96
6453;BME280;3259;51.080;13.712;2023-07-13T12:54:54;100205.13;;;32.00;31.48
6453;BME280;3259;51.080;13.712;2023-07-13T12:57:54;100209.50;;;32.06;30.58
6453;BME280;3259;51.080;13.712;2023-07-13T13:00:49;100194.50;;;31.94;31.10
6453;BME280;3259;51.080;13.712;2023-07-13T13:03:45;100193.75;;;31.98;31.02
6453;BME280;3259;51.080;13.712;2023-07-13T13:06:35;100198.72;;;32.06;31.13
6453;BME280;3259;51.080;13.712;2023-07-13T13:09:24;100196.09;;;32.11;30.80
6453;BME280;3259;51.080;13.712;2023-07-13T13:12:13;100196.09;;;32.11;30.34
6453;BME280;3259;51.080;13.712;2023-07-13T13:15:02;100193.91;;;32.08;31.36
6453;BME280;3259;51.080;13.712;2023-07-13T13:17:55;100189.56;;;32.07;31.37
6453;BME280;3259;51.080;13.712;2023-07-13T13:20:46;100192.00;;;32.25;31.32
6453;BME280;3259;51.080;13.712;2023-07-13T13:23:35;100203.31;;;32.22;31.29
6453;BME280;3259;51.080;13.712;2023-07-13T13:26:24;100196.59;;;32.25;31.08
6453;BME280;3259;51.080;13.712;2023-07-13T13:29:14;100193.59;;;32.21;31.20
6453;BME280;3259;51.080;13.712;2023-07-13T13:32:03;100198.91;;;31.83;31.05
6453;BME280;3259;51.080;13.712;2023-07-13T13:34:54;100190.25;;;31.81;31.15
6453;BME280;3259;51.080;13.712;2023-07-13T13:37:43;100192.88;;;31.76;30.66
6453;BME280;3259;51.080;13.712;2023-07-13T13:40:31;100190.09;;;31.71;31.03
6453;BME280;3259;51.080;13.712;2023-07-13T13:43:22;100198.00;;;31.61;30.80
6453;BME280;3259;51.080;13.712;2023-07-13T13:46:16;100197.69;;;31.58;30.78
6453;BME280;3259;51.080;13.712;2023-07-13T13:49:08;100200.22;;;31.64;30.67
6453;BME280;3259;51.080;13.712;2023-07-13T13:52:02;100203.63;;;31.60;31.21
6453;BME280;3259;51.080;13.712;2023-07-13T13:54:51;100206.56;;;31.58;30.65
6453;BME280;3259;51.080;13.712;2023-07-13T13:57:43;100203.78;;;31.53;30.42
6453;BME280;3259;51.080;13.712;2023-07-13T14:00:31;100196.28;;;31.55;29.73
6453;BME280;3259;51.080;13.712;2023-07-13T14:03:21;100196.50;;;31.54;29.89
6453;BME280;3259;51.080;13.712;2023-07-13T14:06:11;100199.69;;;31.51;30.04
6453;BME280;3259;51.080;13.712;2023-07-13T14:09:02;100200.53;;;31.51;29.96
6453;BME280;3259;51.080;13.712;2023-07-13T14:11:51;100195.94;;;31.52;30.02
6453;BME280;3259;51.080;13.712;2023-07-13T14:14:40;100186.94;;;31.46;29.15
6453;BME280;3259;51.080;13.712;2023-07-13T14:17:29;100197.28;;;31.49;29.51
6453;BME280;3259;51.080;13.712;2023-07-13T14:20:19;100198.97;;;31.55;29.44
6453;BME280;3259;51.080;13.712;2023-07-13T14:23:09;100197.41;;;31.59;29.87
6453;BME280;3259;51.080;13.712;2023-07-13T14:25:59;100199.88;;;31.61;29.36
6453;BME280;3259;51.080;13.712;2023-07-13T14:28:49;100189.81;;;31.56;29.65
6453;BME280;3259;51.080;13.712;2023-07-13T14:31:38;100195.59;;;31.48;29.69
6453;BME280;3259;51.080;13.712;2023-07-13T14:34:26;100195.72;;;31.53;30.11
6453;BME280;3259;51.080;13.712;2023-07-13T14:37:15;100186.63;;;31.59;30.07
6453;BME280;3259;51.080;13.712;2023-07-13T14:40:12;100188.25;;;31.60;29.99
6453;BME280;3259;51.080;13.712;2023-07-13T14:43:02;100195.31;;;31.61;30.12
6453;BME280;3259;51.080;13.712;2023-07-13T14:45:51;100196.31;;;31.72;29.65
6453;BME280;3259;51.080;13.712;2023-07-13T14:48:42;100188.72;;;31.69;29.81
6453;BME280;3259;51.080;13.712;2023-07-13T14:51:31;100194.50;;;31.77;29.45
6453;BME280;3259;51.080;13.712;2023-07-13T14:54:21;100186.56;;;31.87;29.71
6453;BME280;3259;51.080;13.712;2023-07-13T14:57:10;100191.88;;;31.82;29.69
6453;BME280;3259;51.080;13.712;2023-07-13T15:00:01;100188.13;;;31.83;29.33
6453;BME280;3259;51.080;13.712;2023-07-13T15:02:52;100186.56;;;31.87;29.16
6453;BME280;3259;51.080;13.712;2023-07-13T15:05:42;100195.00;;;31.91;28.83